McDade, Louisiana
Current Conditions -  °F | °C
As of 9:11 AM on Saturday 20 Dec 2014 (Local Time) from KDTN Reporting Station
Haze Haze  
Wind Chill: 39°   Ceiling: 400
Heat Index: 43°   Visibility: 5mi
Dew Point: 41°   Wind: 6mph
Humidity: 93%   Direction: 30°NNE
Pressure: 30.27"   Gusts: NA
Location:  32.3415°N, 93.4966°W
Report Text: KDTN 201511Z 03005KT 5SM BR OVC004 06/05 A3027 RMK AO2 T00610050
Loading
Personal Weather Stations






























Interactive Weather Map New forecast layout! Learn more

10-Day Weather Forecast

Advertisements
Track Severe Weather on mobile